sensor_id;sensor_type;location;lat;lon;timestamp;temperature;humidity
64499;SHT31;51087;55.718;21.122;2023-06-24T00:00:45;16.51;99.99
64499;SHT31;51087;55.718;21.122;2023-06-24T00:03:11;16.48;99.99
64499;SHT31;51087;55.718;21.122;2023-06-24T00:05:37;16.49;99.99
64499;SHT31;51087;55.718;21.122;2023-06-24T00:08:04;16.53;99.99
64499;SHT31;51087;55.718;21.122;2023-06-24T00:10:32;16.57;99.99
64499;SHT31;51087;55.718;21.122;2023-06-24T00:12:58;16.52;99.99
64499;SHT31;51087;55.718;21.122;2023-06-24T00:15:27;16.49;99.99
64499;SHT31;51087;55.718;21.122;2023-06-24T00:17:52;16.48;99.99
64499;SHT31;51087;55.718;21.122;2023-06-24T00:20:18;16.52;99.99
64499;SHT31;51087;55.718;21.122;2023-06-24T00:22:45;16.56;99.99
64499;SHT31;51087;55.718;21.122;2023-06-24T00:25:14;16.59;99.99
64499;SHT31;51087;55.718;21.122;2023-06-24T00:27:41;16.62;99.99
64499;SHT31;51087;55.718;21.122;2023-06-24T00:30:07;16.57;99.99
64499;SHT31;51087;55.718;21.122;2023-06-24T00:32:33;16.53;99.99
64499;SHT31;51087;55.718;21.122;2023-06-24T00:34:58;16.52;99.99
64499;SHT31;51087;55.718;21.122;2023-06-24T00:37:25;16.55;99.99
64499;SHT31;51087;55.718;21.122;2023-06-24T00:39:50;16.59;99.99
64499;SHT31;51087;55.718;21.122;2023-06-24T00:42:16;16.52;99.99
64499;SHT31;51087;55.718;21.122;2023-06-24T00:44:41;16.49;99.99
64499;SHT31;51087;55.718;21.122;2023-06-24T00:47:07;16.52;99.99
64499;SHT31;51087;55.718;21.122;2023-06-24T00:49:33;16.57;99.99
64499;SHT31;51087;55.718;21.122;2023-06-24T00:51:59;16.52;99.99
64499;SHT31;51087;55.718;21.122;2023-06-24T00:54:26;16.55;99.99
64499;SHT31;51087;55.718;21.122;2023-06-24T00:56:56;16.57;99.99
64499;SHT31;51087;55.718;21.122;2023-06-24T00:59:22;16.52;99.99
64499;SHT31;51087;55.718;21.122;2023-06-24T01:01:50;16.46;99.99
64499;SHT31;51087;55.718;21.122;2023-06-24T01:04:18;16.49;99.99
64499;SHT31;51087;55.718;21.122;2023-06-24T01:06:43;16.48;99.99
64499;SHT31;51087;55.718;21.122;2023-06-24T01:09:09;16.53;99.99
64499;SHT31;51087;55.718;21.122;2023-06-24T01:11:35;16.52;99.99
64499;SHT31;51087;55.718;21.122;2023-06-24T01:14:00;16.56;99.99
64499;SHT31;51087;55.718;21.122;2023-06-24T01:16:33;16.62;99.99
64499;SHT31;51087;55.718;21.122;2023-06-24T01:19:15;16.57;99.99
64499;SHT31;51087;55.718;21.122;2023-06-24T01:30:09;16.49;99.99
64499;SHT31;51087;55.718;21.122;2023-06-24T01:32:49;16.53;99.99
64499;SHT31;51087;55.718;21.122;2023-06-24T01:35:18;16.51;99.99
64499;SHT31;51087;55.718;21.122;2023-06-24T01:37:48;16.51;99.99
64499;SHT31;51087;55.718;21.122;2023-06-24T01:40:27;16.51;99.99
64499;SHT31;51087;55.718;21.122;2023-06-24T01:42:55;16.52;99.99
64499;SHT31;51087;55.718;21.122;2023-06-24T01:45:25;16.51;99.99
64499;SHT31;51087;55.718;21.122;2023-06-24T01:48:13;16.56;99.99
64499;SHT31;51087;55.718;21.122;2023-06-24T01:50:53;16.56;99.99
64499;SHT31;51087;55.718;21.122;2023-06-24T01:53:20;16.56;99.99
64499;SHT31;51087;55.718;21.122;2023-06-24T01:55:48;16.53;99.99
64499;SHT31;51087;55.718;21.122;2023-06-24T01:58:17;16.49;99.99
64499;SHT31;51087;55.718;21.122;2023-06-24T02:00:43;16.55;99.99
64499;SHT31;51087;55.718;21.122;2023-06-24T02:03:09;16.56;99.99
64499;SHT31;51087;55.718;21.122;2023-06-24T02:05:36;16.63;99.99
64499;SHT31;51087;55.718;21.122;2023-06-24T02:08:07;16.60;99.99
64499;SHT31;51087;55.718;21.122;2023-06-24T02:10:35;16.56;99.99
64499;SHT31;51087;55.718;21.122;2023-06-24T02:13:02;16.59;99.99
64499;SHT31;51087;55.718;21.122;2023-06-24T02:15:28;16.64;99.99
64499;SHT31;51087;55.718;21.122;2023-06-24T02:17:55;16.64;99.99
64499;SHT31;51087;55.718;21.122;2023-06-24T02:20:22;16.67;99.99
64499;SHT31;51087;55.718;21.122;2023-06-24T02:22:52;16.72;99.99
64499;SHT31;51087;55.718;21.122;2023-06-24T02:25:18;16.73;99.99
64499;SHT31;51087;55.718;21.122;2023-06-24T02:27:44;16.76;99.99
64499;SHT31;51087;55.718;21.122;2023-06-24T02:30:10;16.83;99.99
64499;SHT31;51087;55.718;21.122;2023-06-24T02:32:36;16.85;99.99
64499;SHT31;51087;55.718;21.122;2023-06-24T02:35:04;16.84;99.99
64499;SHT31;51087;55.718;21.122;2023-06-24T02:37:30;16.87;99.99
64499;SHT31;51087;55.718;21.122;2023-06-24T02:39:56;16.85;99.99
64499;SHT31;51087;55.718;21.122;2023-06-24T02:42:21;16.88;99.99
64499;SHT31;51087;55.718;21.122;2023-06-24T02:44:47;16.87;99.99
64499;SHT31;51087;55.718;21.122;2023-06-24T02:47:14;16.88;99.99
64499;SHT31;51087;55.718;21.122;2023-06-24T02:49:42;16.91;99.99
64499;SHT31;51087;55.718;21.122;2023-06-24T02:52:08;16.93;99.99
64499;SHT31;51087;55.718;21.122;2023-06-24T02:54:34;16.94;99.99
64499;SHT31;51087;55.718;21.122;2023-06-24T02:57:00;16.97;99.99
64499;SHT31;51087;55.718;21.122;2023-06-24T02:59:26;17.00;99.99
64499;SHT31;51087;55.718;21.122;2023-06-24T03:01:51;17.04;99.99
64499;SHT31;51087;55.718;21.122;2023-06-24T03:04:18;17.03;99.99
64499;SHT31;51087;55.718;21.122;2023-06-24T03:06:45;17.03;99.99
64499;SHT31;51087;55.718;21.122;2023-06-24T03:09:11;17.04;99.99
64499;SHT31;51087;55.718;21.122;2023-06-24T03:11:43;17.04;99.99
64499;SHT31;51087;55.718;21.122;2023-06-24T03:14:09;17.07;99.99
64499;SHT31;51087;55.718;21.122;2023-06-24T03:16:35;17.07;99.99
64499;SHT31;51087;55.718;21.122;2023-06-24T03:19:01;17.10;99.99
64499;SHT31;51087;55.718;21.122;2023-06-24T03:21:26;17.11;99.99
64499;SHT31;51087;55.718;21.122;2023-06-24T03:23:54;17.07;99.99
64499;SHT31;51087;55.718;21.122;2023-06-24T03:26:20;17.14;99.99
64499;SHT31;51087;55.718;21.122;2023-06-24T03:28:45;17.14;99.99
64499;SHT31;51087;55.718;21.122;2023-06-24T03:31:11;17.20;99.99
64499;SHT31;51087;55.718;21.122;2023-06-24T03:33:36;17.20;99.99
64499;SHT31;51087;55.718;21.122;2023-06-24T03:36:02;17.21;99.99
64499;SHT31;51087;55.718;21.122;2023-06-24T03:38:28;17.25;99.99
64499;SHT31;51087;55.718;21.122;2023-06-24T03:40:54;17.25;99.99
64499;SHT31;51087;55.718;21.122;2023-06-24T03:43:19;17.22;99.99
64499;SHT31;51087;55.718;21.122;2023-06-24T03:45:44;17.24;99.99
64499;SHT31;51087;55.718;21.122;2023-06-24T03:48:10;17.22;99.99
64499;SHT31;51087;55.718;21.122;2023-06-24T03:50:35;17.27;99.99
64499;SHT31;51087;55.718;21.122;2023-06-24T03:53:02;17.29;99.99
64499;SHT31;51087;55.718;21.122;2023-06-24T03:55:28;17.32;99.99
64499;SHT31;51087;55.718;21.122;2023-06-24T03:57:53;17.32;99.99
64499;SHT31;51087;55.718;21.122;2023-06-24T04:00:19;17.35;99.99
64499;SHT31;51087;55.718;21.122;2023-06-24T04:02:46;17.40;99.99
64499;SHT31;51087;55.718;21.122;2023-06-24T04:05:12;17.45;99.99
64499;SHT31;51087;55.718;21.122;2023-06-24T04:07:37;17.50;99.99
64499;SHT31;51087;55.718;21.122;2023-06-24T04:10:04;17.52;99.99
64499;SHT31;51087;55.718;21.122;2023-06-24T04:12:34;17.53;99.99
64499;SHT31;51087;55.718;21.122;2023-06-24T04:14:59;17.61;99.99
64499;SHT31;51087;55.718;21.122;2023-06-24T04:17:25;17.59;99.99
64499;SHT31;51087;55.718;21.122;2023-06-24T04:19:50;17.58;99.99
64499;SHT31;51087;55.718;21.122;2023-06-24T04:22:15;17.62;99.99
64499;SHT31;51087;55.718;21.122;2023-06-24T04:24:42;17.66;99.99
64499;SHT31;51087;55.718;21.122;2023-06-24T04:27:07;17.72;99.99
64499;SHT31;51087;55.718;21.122;2023-06-24T04:29:34;17.77;99.99
64499;SHT31;51087;55.718;21.122;2023-06-24T04:32:00;17.86;99.99
64499;SHT31;51087;55.718;21.122;2023-06-24T04:34:25;17.93;99.99
64499;SHT31;51087;55.718;21.122;2023-06-24T04:36:50;17.93;99.99
64499;SHT31;51087;55.718;21.122;2023-06-24T04:39:19;18.01;99.99
64499;SHT31;51087;55.718;21.122;2023-06-24T04:41:44;18.05;99.99
64499;SHT31;51087;55.718;21.122;2023-06-24T04:44:11;18.11;99.99
64499;SHT31;51087;55.718;21.122;2023-06-24T04:46:36;18.15;99.99
64499;SHT31;51087;55.718;21.122;2023-06-24T04:49:02;18.24;99.94
64499;SHT31;51087;55.718;21.122;2023-06-24T04:51:27;18.34;99.57
64499;SHT31;51087;55.718;21.122;2023-06-24T04:53:53;18.40;99.24
64499;SHT31;51087;55.718;21.122;2023-06-24T04:56:18;18.45;98.35
64499;SHT31;51087;55.718;21.122;2023-06-24T04:58:44;18.49;98.18
64499;SHT31;51087;55.718;21.122;2023-06-24T05:01:09;18.58;97.72
64499;SHT31;51087;55.718;21.122;2023-06-24T05:03:34;18.60;97.34
64499;SHT31;51087;55.718;21.122;2023-06-24T05:06:00;18.59;96.88
64499;SHT31;51087;55.718;21.122;2023-06-24T05:08:25;18.48;96.80
64499;SHT31;51087;55.718;21.122;2023-06-24T05:10:51;18.48;97.42
64499;SHT31;51087;55.718;21.122;2023-06-24T05:13:16;18.41;97.58
64499;SHT31;51087;55.718;21.122;2023-06-24T05:15:42;18.38;97.74
64499;SHT31;51087;55.718;21.122;2023-06-24T05:18:07;18.37;97.86
64499;SHT31;51087;55.718;21.122;2023-06-24T05:20:32;18.34;97.93
64499;SHT31;51087;55.718;21.122;2023-06-24T05:22:58;18.28;97.96
64499;SHT31;51087;55.718;21.122;2023-06-24T05:25:23;18.27;97.91
64499;SHT31;51087;55.718;21.122;2023-06-24T05:27:49;18.28;97.76
64499;SHT31;51087;55.718;21.122;2023-06-24T05:30:14;18.31;97.72
64499;SHT31;51087;55.718;21.122;2023-06-24T05:32:40;18.32;97.53
64499;SHT31;51087;55.718;21.122;2023-06-24T05:35:06;18.41;97.49
64499;SHT31;51087;55.718;21.122;2023-06-24T05:37:32;18.45;97.38
64499;SHT31;51087;55.718;21.122;2023-06-24T05:39:57;18.53;97.38
64499;SHT31;51087;55.718;21.122;2023-06-24T05:42:26;18.59;96.39
64499;SHT31;51087;55.718;21.122;2023-06-24T05:44:51;18.69;95.91
64499;SHT31;51087;55.718;21.122;2023-06-24T05:47:17;18.75;95.67
64499;SHT31;51087;55.718;21.122;2023-06-24T05:49:42;18.77;95.22
64499;SHT31;51087;55.718;21.122;2023-06-24T05:52:08;18.92;94.73
64499;SHT31;51087;55.718;21.122;2023-06-24T05:54:33;18.96;93.69
64499;SHT31;51087;55.718;21.122;2023-06-24T05:56:58;18.97;93.75
64499;SHT31;51087;55.718;21.122;2023-06-24T05:59:24;19.03;93.67
64499;SHT31;51087;55.718;21.122;2023-06-24T06:01:49;19.07;93.97
64499;SHT31;51087;55.718;21.122;2023-06-24T06:04:15;19.03;92.85
64499;SHT31;51087;55.718;21.122;2023-06-24T06:06:40;19.10;93.01
64499;SHT31;51087;55.718;21.122;2023-06-24T06:09:06;19.07;92.65
64499;SHT31;51087;55.718;21.122;2023-06-24T06:11:31;19.11;93.58
64499;SHT31;51087;55.718;21.122;2023-06-24T06:13:57;19.11;93.19
64499;SHT31;51087;55.718;21.122;2023-06-24T06:16:22;19.02;94.56
64499;SHT31;51087;55.718;21.122;2023-06-24T06:18:48;19.04;94.78
64499;SHT31;51087;55.718;21.122;2023-06-24T06:21:14;18.95;94.53
64499;SHT31;51087;55.718;21.122;2023-06-24T06:23:39;18.85;95.37
64499;SHT31;51087;55.718;21.122;2023-06-24T06:26:05;18.77;94.78
64499;SHT31;51087;55.718;21.122;2023-06-24T06:28:30;18.86;94.84
64499;SHT31;51087;55.718;21.122;2023-06-24T06:30:55;18.90;94.21
64499;SHT31;51087;55.718;21.122;2023-06-24T06:33:22;18.86;93.56
64499;SHT31;51087;55.718;21.122;2023-06-24T06:35:50;19.00;93.83
64499;SHT31;51087;55.718;21.122;2023-06-24T06:38:16;18.97;93.79
64499;SHT31;51087;55.718;21.122;2023-06-24T06:40:41;19.02;93.44
64499;SHT31;51087;55.718;21.122;2023-06-24T06:43:06;19.10;93.66
64499;SHT31;51087;55.718;21.122;2023-06-24T06:45:32;19.03;94.22
64499;SHT31;51087;55.718;21.122;2023-06-24T06:47:57;18.95;95.68
64499;SHT31;51087;55.718;21.122;2023-06-24T06:50:23;18.80;96.32
64499;SHT31;51087;55.718;21.122;2023-06-24T06:52:48;18.85;95.77
64499;SHT31;51087;55.718;21.122;2023-06-24T06:55:13;18.92;94.34
64499;SHT31;51087;55.718;21.122;2023-06-24T06:57:39;18.89;95.03
64499;SHT31;51087;55.718;21.122;2023-06-24T07:00:05;19.10;95.05
64499;SHT31;51087;55.718;21.122;2023-06-24T07:02:30;19.06;94.70
64499;SHT31;51087;55.718;21.122;2023-06-24T07:04:56;18.97;94.79
64499;SHT31;51087;55.718;21.122;2023-06-24T07:07:21;18.99;94.94
64499;SHT31;51087;55.718;21.122;2023-06-24T07:09:48;19.10;94.94
64499;SHT31;51087;55.718;21.122;2023-06-24T07:12:13;18.93;95.77
64499;SHT31;51087;55.718;21.122;2023-06-24T07:14:39;18.96;95.39
64499;SHT31;51087;55.718;21.122;2023-06-24T07:17:05;18.90;95.54
64499;SHT31;51087;55.718;21.122;2023-06-24T07:19:30;18.77;95.03
64499;SHT31;51087;55.718;21.122;2023-06-24T07:21:55;18.96;95.05
64499;SHT31;51087;55.718;21.122;2023-06-24T07:24:21;19.13;94.57
64499;SHT31;51087;55.718;21.122;2023-06-24T07:26:46;19.21;94.20
64499;SHT31;51087;55.718;21.122;2023-06-24T07:29:12;19.17;94.68
64499;SHT31;51087;55.718;21.122;2023-06-24T07:31:37;19.11;95.11
64499;SHT31;51087;55.718;21.122;2023-06-24T07:34:02;19.10;94.51
64499;SHT31;51087;55.718;21.122;2023-06-24T07:36:28;19.06;94.59
64499;SHT31;51087;55.718;21.122;2023-06-24T07:38:53;19.16;94.80
64499;SHT31;51087;55.718;21.122;2023-06-24T07:41:19;19.16;94.96
64499;SHT31;51087;55.718;21.122;2023-06-24T07:43:44;19.10;95.12
64499;SHT31;51087;55.718;21.122;2023-06-24T07:46:10;19.10;95.02
64499;SHT31;51087;55.718;21.122;2023-06-24T07:48:35;19.20;94.91
64499;SHT31;51087;55.718;21.122;2023-06-24T07:51:00;19.11;94.86
64499;SHT31;51087;55.718;21.122;2023-06-24T07:53:26;19.34;94.58
64499;SHT31;51087;55.718;21.122;2023-06-24T07:55:51;19.58;93.36
64499;SHT31;51087;55.718;21.122;2023-06-24T07:58:17;19.66;91.64
64499;SHT31;51087;55.718;21.122;2023-06-24T08:00:44;19.47;92.96
64499;SHT31;51087;55.718;21.122;2023-06-24T08:03:10;19.52;93.05
64499;SHT31;51087;55.718;21.122;2023-06-24T08:05:35;19.66;92.54
64499;SHT31;51087;55.718;21.122;2023-06-24T08:08:00;19.68;91.46
64499;SHT31;51087;55.718;21.122;2023-06-24T08:10:26;19.71;91.84
64499;SHT31;51087;55.718;21.122;2023-06-24T08:12:51;19.93;90.76
64499;SHT31;51087;55.718;21.122;2023-06-24T08:15:17;20.06;90.44
64499;SHT31;51087;55.718;21.122;2023-06-24T08:17:42;20.12;90.06
64499;SHT31;51087;55.718;21.122;2023-06-24T08:20:08;20.16;89.34
64499;SHT31;51087;55.718;21.122;2023-06-24T08:22:34;20.43;88.87
64499;SHT31;51087;55.718;21.122;2023-06-24T08:24:59;20.51;88.81
64499;SHT31;51087;55.718;21.122;2023-06-24T08:27:25;20.59;87.71
64499;SHT31;51087;55.718;21.122;2023-06-24T08:29:50;20.65;87.32
64499;SHT31;51087;55.718;21.122;2023-06-24T08:32:16;20.52;87.32
64499;SHT31;51087;55.718;21.122;2023-06-24T08:34:41;20.41;87.08
64499;SHT31;51087;55.718;21.122;2023-06-24T08:37:07;20.58;85.67
64499;SHT31;51087;55.718;21.122;2023-06-24T08:39:33;20.52;86.69
64499;SHT31;51087;55.718;21.122;2023-06-24T08:41:59;20.57;86.26
64499;SHT31;51087;55.718;21.122;2023-06-24T08:44:24;20.59;83.71
64499;SHT31;51087;55.718;21.122;2023-06-24T08:46:49;20.85;85.46
64499;SHT31;51087;55.718;21.122;2023-06-24T08:51:54;21.03;84.40
64499;SHT31;51087;55.718;21.122;2023-06-24T08:54:20;21.12;84.97
64499;SHT31;51087;55.718;21.122;2023-06-24T08:56:46;21.07;84.37
64499;SHT31;51087;55.718;21.122;2023-06-24T08:59:12;21.14;82.94
64499;SHT31;51087;55.718;21.122;2023-06-24T09:01:37;21.16;83.94
64499;SHT31;51087;55.718;21.122;2023-06-24T09:04:04;21.26;83.67
64499;SHT31;51087;55.718;21.122;2023-06-24T09:06:31;21.47;82.68
64499;SHT31;51087;55.718;21.122;2023-06-24T09:08:56;21.59;81.02
64499;SHT31;51087;55.718;21.122;2023-06-24T09:11:26;21.43;81.60
64499;SHT31;51087;55.718;21.122;2023-06-24T09:13:59;21.51;81.40
64499;SHT31;51087;55.718;21.122;2023-06-24T09:16:25;21.67;78.71
64499;SHT31;51087;55.718;21.122;2023-06-24T09:18:52;21.85;80.53
64499;SHT31;51087;55.718;21.122;2023-06-24T09:21:28;21.71;75.47
64499;SHT31;51087;55.718;21.122;2023-06-24T09:23:56;21.94;77.86
64499;SHT31;51087;55.718;21.122;2023-06-24T09:26:23;21.84;74.16
64499;SHT31;51087;55.718;21.122;2023-06-24T09:28:49;21.74;76.02
64499;SHT31;51087;55.718;21.122;2023-06-24T09:31:15;21.91;76.07
64499;SHT31;51087;55.718;21.122;2023-06-24T09:33:40;21.96;75.61
64499;SHT31;51087;55.718;21.122;2023-06-24T09:36:06;22.29;74.75
64499;SHT31;51087;55.718;21.122;2023-06-24T09:38:33;22.20;74.13
64499;SHT31;51087;55.718;21.122;2023-06-24T09:41:03;22.44;70.89
64499;SHT31;51087;55.718;21.122;2023-06-24T09:43:35;22.57;72.01
64499;SHT31;51087;55.718;21.122;2023-06-24T09:46:02;22.68;70.68
64499;SHT31;51087;55.718;21.122;2023-06-24T09:48:28;22.94;69.97
64499;SHT31;51087;55.718;21.122;2023-06-24T09:51:02;22.91;69.54
64499;SHT31;51087;55.718;21.122;2023-06-24T09:53:32;22.90;70.58
64499;SHT31;51087;55.718;21.122;2023-06-24T09:56:03;23.39;67.84
64499;SHT31;51087;55.718;21.122;2023-06-24T09:58:32;23.70;67.30
64499;SHT31;51087;55.718;21.122;2023-06-24T10:01:01;23.97;66.55
64499;SHT31;51087;55.718;21.122;2023-06-24T10:03:29;24.81;65.50
64499;SHT31;51087;55.718;21.122;2023-06-24T10:05:54;24.97;64.07
64499;SHT31;51087;55.718;21.122;2023-06-24T10:08:20;26.00;62.17
64499;SHT31;51087;55.718;21.122;2023-06-24T10:10:46;25.90;60.84
64499;SHT31;51087;55.718;21.122;2023-06-24T10:13:11;26.58;60.05
64499;SHT31;51087;55.718;21.122;2023-06-24T10:15:37;26.28;60.53
64499;SHT31;51087;55.718;21.122;2023-06-24T10:18:03;26.31;61.22
64499;SHT31;51087;55.718;21.122;2023-06-24T10:20:29;26.48;59.19
64499;SHT31;51087;55.718;21.122;2023-06-24T10:22:54;26.59;58.64
64499;SHT31;51087;55.718;21.122;2023-06-24T10:25:20;26.32;59.14
64499;SHT31;51087;55.718;21.122;2023-06-24T10:27:53;26.58;58.14
64499;SHT31;51087;55.718;21.122;2023-06-24T10:30:20;26.51;59.80
64499;SHT31;51087;55.718;21.122;2023-06-24T10:32:52;27.14;59.33
64499;SHT31;51087;55.718;21.122;2023-06-24T10:35:24;27.00;58.80
64499;SHT31;51087;55.718;21.122;2023-06-24T10:37:57;28.23;56.94
64499;SHT31;51087;55.718;21.122;2023-06-24T10:40:36;28.91;55.57
64499;SHT31;51087;55.718;21.122;2023-06-24T10:45:53;28.20;56.75
64499;SHT31;51087;55.718;21.122;2023-06-24T10:48:18;29.77;53.38
64499;SHT31;51087;55.718;21.122;2023-06-24T10:50:47;29.29;53.75
64499;SHT31;51087;55.718;21.122;2023-06-24T10:53:14;28.40;55.37
64499;SHT31;51087;55.718;21.122;2023-06-24T10:55:40;27.17;58.54
64499;SHT31;51087;55.718;21.122;2023-06-24T10:58:09;27.23;59.02
64499;SHT31;51087;55.718;21.122;2023-06-24T11:00:36;27.52;59.57
64499;SHT31;51087;55.718;21.122;2023-06-24T11:03:13;26.65;61.79
64499;SHT31;51087;55.718;21.122;2023-06-24T11:05:41;26.25;62.10
64499;SHT31;51087;55.718;21.122;2023-06-24T11:08:10;26.96;60.97
64499;SHT31;51087;55.718;21.122;2023-06-24T11:10:47;26.34;61.21
64499;SHT31;51087;55.718;21.122;2023-06-24T11:13:13;26.20;62.14
64499;SHT31;51087;55.718;21.122;2023-06-24T11:15:40;25.04;65.09
64499;SHT31;51087;55.718;21.122;2023-06-24T11:18:11;24.35;67.77
64499;SHT31;51087;55.718;21.122;2023-06-24T11:20:40;24.32;69.32
64499;SHT31;51087;55.718;21.122;2023-06-24T11:23:07;25.06;68.57
64499;SHT31;51087;55.718;21.122;2023-06-24T11:25:41;25.07;64.12
64499;SHT31;51087;55.718;21.122;2023-06-24T11:28:40;25.84;65.09
64499;SHT31;51087;55.718;21.122;2023-06-24T11:31:06;26.92;63.53
64499;SHT31;51087;55.718;21.122;2023-06-24T11:33:32;27.93;60.45
64499;SHT31;51087;55.718;21.122;2023-06-24T11:35:57;27.61;59.92
64499;SHT31;51087;55.718;21.122;2023-06-24T11:38:22;28.07;58.49
64499;SHT31;51087;55.718;21.122;2023-06-24T11:40:48;29.43;54.91
64499;SHT31;51087;55.718;21.122;2023-06-24T11:43:14;29.68;53.82
64499;SHT31;51087;55.718;21.122;2023-06-24T11:45:39;29.89;52.27
64499;SHT31;51087;55.718;21.122;2023-06-24T11:48:05;31.39;49.65
64499;SHT31;51087;55.718;21.122;2023-06-24T11:50:30;30.60;50.02
64499;SHT31;51087;55.718;21.122;2023-06-24T11:52:55;30.95;49.07
64499;SHT31;51087;55.718;21.122;2023-06-24T11:55:24;30.26;50.30
64499;SHT31;51087;55.718;21.122;2023-06-24T11:57:57;29.51;51.34
64499;SHT31;51087;55.718;21.122;2023-06-24T12:00:25;29.09;52.74
64499;SHT31;51087;55.718;21.122;2023-06-24T12:02:53;30.71;49.24
64499;SHT31;51087;55.718;21.122;2023-06-24T12:05:20;30.37;49.49
64499;SHT31;51087;55.718;21.122;2023-06-24T12:07:55;30.78;48.32
64499;SHT31;51087;55.718;21.122;2023-06-24T12:10:21;31.91;46.10
64499;SHT31;51087;55.718;21.122;2023-06-24T12:12:47;33.14;44.72
64499;SHT31;51087;55.718;21.122;2023-06-24T12:15:12;33.20;43.60
64499;SHT31;51087;55.718;21.122;2023-06-24T12:17:37;32.58;44.80
64499;SHT31;51087;55.718;21.122;2023-06-24T12:20:03;33.03;43.96
64499;SHT31;51087;55.718;21.122;2023-06-24T12:22:29;32.86;43.58
64499;SHT31;51087;55.718;21.122;2023-06-24T12:24:55;32.46;44.39
64499;SHT31;51087;55.718;21.122;2023-06-24T12:27:20;32.68;44.10
64499;SHT31;51087;55.718;21.122;2023-06-24T12:29:45;31.31;45.87
64499;SHT31;51087;55.718;21.122;2023-06-24T12:32:11;31.26;45.86
64499;SHT31;51087;55.718;21.122;2023-06-24T12:34:36;30.85;46.22
64499;SHT31;51087;55.718;21.122;2023-06-24T12:37:03;30.26;47.94
64499;SHT31;51087;55.718;21.122;2023-06-24T12:39:29;30.60;47.50
64499;SHT31;51087;55.718;21.122;2023-06-24T12:41:54;28.95;49.18
64499;SHT31;51087;55.718;21.122;2023-06-24T12:44:19;29.08;49.66
64499;SHT31;51087;55.718;21.122;2023-06-24T12:46:45;29.03;49.70
64499;SHT31;51087;55.718;21.122;2023-06-24T12:49:10;29.25;49.75
64499;SHT31;51087;55.718;21.122;2023-06-24T12:51:35;28.76;48.43
64499;SHT31;51087;55.718;21.122;2023-06-24T12:54:01;28.03;51.35
64499;SHT31;51087;55.718;21.122;2023-06-24T12:56:26;27.42;53.85
64499;SHT31;51087;55.718;21.122;2023-06-24T12:58:52;27.45;53.83
64499;SHT31;51087;55.718;21.122;2023-06-24T13:01:17;27.47;53.97
64499;SHT31;51087;55.718;21.122;2023-06-24T13:03:42;28.72;52.30
64499;SHT31;51087;55.718;21.122;2023-06-24T13:06:08;29.10;50.43
64499;SHT31;51087;55.718;21.122;2023-06-24T13:08:34;29.63;48.34
64499;SHT31;51087;55.718;21.122;2023-06-24T13:10:59;31.21;45.97
64499;SHT31;51087;55.718;21.122;2023-06-24T13:13:25;30.90;45.58
64499;SHT31;51087;55.718;21.122;2023-06-24T13:15:50;31.54;44.32
64499;SHT31;51087;55.718;21.122;2023-06-24T13:18:16;31.22;45.04
64499;SHT31;51087;55.718;21.122;2023-06-24T13:20:43;31.56;43.73
64499;SHT31;51087;55.718;21.122;2023-06-24T13:23:09;30.84;45.19
64499;SHT31;51087;55.718;21.122;2023-06-24T13:25:34;31.31;43.01
64499;SHT31;51087;55.718;21.122;2023-06-24T13:28:00;31.39;42.90
64499;SHT31;51087;55.718;21.122;2023-06-24T13:30:25;30.66;44.09
64499;SHT31;51087;55.718;21.122;2023-06-24T13:32:51;29.09;46.48
64499;SHT31;51087;55.718;21.122;2023-06-24T13:35:16;29.10;47.33
64499;SHT31;51087;55.718;21.122;2023-06-24T13:37:41;27.96;48.34
64499;SHT31;51087;55.718;21.122;2023-06-24T13:40:09;27.41;49.82
64499;SHT31;51087;55.718;21.122;2023-06-24T13:42:35;27.66;49.62
64499;SHT31;51087;55.718;21.122;2023-06-24T13:45:00;28.12;48.64
64499;SHT31;51087;55.718;21.122;2023-06-24T13:47:26;28.45;48.57
64499;SHT31;51087;55.718;21.122;2023-06-24T13:49:51;27.71;48.10
64499;SHT31;51087;55.718;21.122;2023-06-24T13:52:16;27.61;49.66
64499;SHT31;51087;55.718;21.122;2023-06-24T13:54:42;28.18;48.52
64499;SHT31;51087;55.718;21.122;2023-06-24T13:57:08;28.13;49.65
64499;SHT31;51087;55.718;21.122;2023-06-24T13:59:34;27.58;49.54
64499;SHT31;51087;55.718;21.122;2023-06-24T14:02:00;27.86;49.69
64499;SHT31;51087;55.718;21.122;2023-06-24T14:04:25;27.82;49.61
64499;SHT31;51087;55.718;21.122;2023-06-24T14:06:51;28.57;49.28
64499;SHT31;51087;55.718;21.122;2023-06-24T14:09:16;28.24;49.10
64499;SHT31;51087;55.718;21.122;2023-06-24T14:11:41;27.35;51.42
64499;SHT31;51087;55.718;21.122;2023-06-24T14:14:07;26.78;53.55
64499;SHT31;51087;55.718;21.122;2023-06-24T14:16:32;26.05;54.69
64499;SHT31;51087;55.718;21.122;2023-06-24T14:18:58;26.40;54.04
64499;SHT31;51087;55.718;21.122;2023-06-24T14:21:23;27.22;54.11
64499;SHT31;51087;55.718;21.122;2023-06-24T14:23:49;28.16;51.45
64499;SHT31;51087;55.718;21.122;2023-06-24T14:26:15;28.60;50.20
64499;SHT31;51087;55.718;21.122;2023-06-24T14:28:40;28.82;50.42
64499;SHT31;51087;55.718;21.122;2023-06-24T14:31:06;28.50;49.90
64499;SHT31;51087;55.718;21.122;2023-06-24T14:33:31;29.18;49.21
64499;SHT31;51087;55.718;21.122;2023-06-24T14:35:57;27.86;50.77
64499;SHT31;51087;55.718;21.122;2023-06-24T14:38:22;27.66;51.09
64499;SHT31;51087;55.718;21.122;2023-06-24T14:40:48;27.81;51.28
64499;SHT31;51087;55.718;21.122;2023-06-24T14:43:14;26.92;51.32
64499;SHT31;51087;55.718;21.122;2023-06-24T14:45:39;26.76;52.68
64499;SHT31;51087;55.718;21.122;2023-06-24T14:48:04;26.79;53.00
64499;SHT31;51087;55.718;21.122;2023-06-24T14:50:30;26.40;54.38
64499;SHT31;51087;55.718;21.122;2023-06-24T14:52:55;25.56;56.45
64499;SHT31;51087;55.718;21.122;2023-06-24T14:55:21;25.39;57.43
64499;SHT31;51087;55.718;21.122;2023-06-24T14:57:46;26.40;55.44
64499;SHT31;51087;55.718;21.122;2023-06-24T15:00:12;27.85;52.21
64499;SHT31;51087;55.718;21.122;2023-06-24T15:02:37;28.62;50.15
64499;SHT31;51087;55.718;21.122;2023-06-24T15:05:03;28.85;49.89
64499;SHT31;51087;55.718;21.122;2023-06-24T15:07:28;27.41;51.78
64499;SHT31;51087;55.718;21.122;2023-06-24T15:09:54;27.27;51.63
64499;SHT31;51087;55.718;21.122;2023-06-24T15:12:19;26.71;52.65
64499;SHT31;51087;55.718;21.122;2023-06-24T15:14:45;26.58;53.35
64499;SHT31;51087;55.718;21.122;2023-06-24T15:17:11;26.71;52.66
64499;SHT31;51087;55.718;21.122;2023-06-24T15:19:37;26.37;54.27
64499;SHT31;51087;55.718;21.122;2023-06-24T15:22:02;26.42;53.37
64499;SHT31;51087;55.718;21.122;2023-06-24T15:24:28;26.55;53.04